Time;durP1;ratioP1;P1;durP2;ratioP2;P2;SDS_P1;SDS_P2;PMS_P1;PMS_P2;Temp;Humidity;BMP_temperature;BMP_pressure;BME280_temperature;BME280_humidity;BME280_pressure;Samples;Min_cycle;Max_cycle;Signal;HPM_P1;HPM_P2
2021/12/17 00:04:36;;;;;;;;;57.25;42.00;;;;;8.75;71.66;103404.22;5037848;28;45298;-47
2021/12/17 00:07:08;;;;;;;;;53.75;42.50;;;;;8.80;71.73;103401.34;5037869;28;45359;-48
2021/12/17 00:09:34;;;;;;;;;55.75;42.75;;;;;8.80;71.95;103406.66;5020108;28;45423;-49
2021/12/17 00:12:00;;;;;;;;;45.50;36.50;;;;;8.79;71.97;103399.63;5037763;28;45381;-49
2021/12/17 00:14:28;;;;;;;;;51.25;41.00;;;;;8.79;72.00;103396.97;5037422;28;45322;-50
2021/12/17 00:17:01;;;;;;;;;51.50;38.00;;;;;8.76;72.15;103397.97;5038143;28;45294;-47
2021/12/17 00:48:58;;;;;;;;;57.75;42.75;;;;;8.65;72.58;103390.50;5037248;28;45457;-47
2021/12/17 00:54:03;;;;;;;;;50.75;41.25;;;;;8.65;73.17;103379.91;5037015;28;45364;-49
2021/12/17 00:56:29;;;;;;;;;52.75;40.25;;;;;8.63;73.04;103381.75;5037117;28;45362;-47
2021/12/17 00:58:55;;;;;;;;;50.00;38.75;;;;;8.64;73.51;103378.19;5037377;28;45303;-50
2021/12/17 01:01:21;;;;;;;;;52.00;42.00;;;;;8.63;73.47;103376.44;5037490;28;45361;-47
2021/12/17 01:03:47;;;;;;;;;58.75;44.25;;;;;8.58;74.02;103377.59;5037057;28;45524;-49
2021/12/17 01:06:13;;;;;;;;;54.75;40.25;;;;;8.60;74.15;103381.03;5036789;28;45460;-48
2021/12/17 01:08:39;;;;;;;;;55.75;41.50;;;;;8.60;73.25;103381.03;5037075;28;45409;-49
2021/12/17 01:11:05;;;;;;;;;55.25;42.25;;;;;8.60;73.95;103375.75;5037450;28;45322;-50
2021/12/17 01:13:31;;;;;;;;;52.25;40.75;;;;;8.58;74.30;103372.28;5036830;28;45458;-50
2021/12/17 01:15:56;;;;;;;;;55.50;42.00;;;;;8.57;74.20;103379.38;5036785;28;45285;-48
2021/12/17 01:18:33;;;;;;;;;44.50;39.25;;;;;8.57;74.10;103373.22;5037099;28;45406;-48
2021/12/17 01:42:42;;;;;;;;;49.50;36.75;;;;;8.49;73.93;103376.22;4962438;28;45428;-47
2021/12/17 01:45:08;;;;;;;;;47.50;40.25;;;;;8.47;73.98;103370.97;4961900;28;46439;-49
2021/12/17 01:47:35;;;;;;;;;46.25;40.75;;;;;8.40;73.19;103361.56;4961905;28;45440;-47
2021/12/17 02:00:57;;;;;;;;;51.50;41.25;;;;;8.31;73.34;103356.66;4961751;28;45503;-49
2021/12/17 02:03:23;;;;;;;;;61.00;42.50;;;;;8.27;73.42;103351.56;4994488;28;45349;-49
2021/12/17 02:05:48;;;;;;;;;59.25;41.25;;;;;8.34;72.79;103366.25;5042386;28;45442;-50
2021/12/17 02:08:14;;;;;;;;;50.00;39.50;;;;;8.33;73.14;103370.69;5042200;28;45231;-52
2021/12/17 02:21:56;;;;;;;;;51.50;39.25;;;;;8.27;74.15;103363.00;5042982;28;45297;-48
2021/12/17 02:32:04;;;;;;;;;48.00;37.00;;;;;8.21;73.52;103368.56;5042876;28;45298;-49
2021/12/17 02:34:52;;;;;;;;;50.75;36.50;;;;;8.19;72.86;103373.09;5042799;28;45472;-49
2021/12/17 02:37:22;;;;;;;;;53.50;42.50;;;;;8.17;73.35;103367.84;5042370;28;46131;-47
2021/12/17 02:45:31;;;;;;;;;55.50;41.50;;;;;8.16;73.69;103366.13;5042805;28;45218;-50
2021/12/17 02:45:32;;;;;;;;;55.00;41.25;;;;;8.12;72.67;103359.22;5039174;28;45517;-50
2021/12/17 02:48:03;;;;;;;;;53.00;42.25;;;;;8.12;73.26;103355.72;5039364;28;46202;-49
2021/12/17 02:50:29;;;;;;;;;63.00;45.75;;;;;8.10;74.07;103355.81;5039441;28;45396;-51
2021/12/17 02:52:57;;;;;;;;;61.00;42.00;;;;;8.07;73.77;103350.63;5039109;28;45219;-50
2021/12/17 02:55:22;;;;;;;;;49.00;41.50;;;;;8.03;73.45;103345.53;5039775;28;45326;-48
2021/12/17 02:57:49;;;;;;;;;46.00;36.50;;;;;8.00;73.79;103343.84;5039232;28;46283;-49
2021/12/17 03:00:15;;;;;;;;;48.75;37.25;;;;;8.05;73.80;103349.84;5021637;28;45410;-50
2021/12/17 03:02:42;;;;;;;;;45.50;40.00;;;;;8.05;73.17;103352.50;5039298;28;45373;-49
2021/12/17 03:05:09;;;;;;;;;52.75;40.00;;;;;8.05;74.11;103343.66;5039634;28;45287;-47
2021/12/17 03:07:38;;;;;;;;;47.75;39.00;;;;;8.04;72.95;103341.94;5039050;28;46617;-54
2021/12/17 03:10:08;;;;;;;;;60.00;42.50;;;;;8.04;72.90;103344.59;5039258;28;45374;-50
2021/12/17 03:12:42;;;;;;;;;23.25;9.75;;;;;8.03;73.41;103333.13;5039544;28;45336;-48
2021/12/17 03:23:27;;;;;;;;;46.75;36.00;;;;;8.03;73.99;103340.22;5038739;28;45338;-49
2021/12/17 03:25:54;;;;;;;;;51.00;42.00;;;;;8.01;74.11;103335.00;5038871;28;45408;-50
2021/12/17 03:28:19;;;;;;;;;52.50;37.25;;;;;8.01;73.32;103332.34;5038419;28;45418;-49
2021/12/17 03:30:46;;;;;;;;;44.50;35.25;;;;;7.93;74.34;103319.41;5038546;28;45456;-49
2021/12/17 03:33:11;;;;;;;;;51.00;41.00;;;;;8.02;73.68;103342.00;5038540;28;45262;-47
2021/12/17 03:35:37;;;;;;;;;52.25;37.75;;;;;8.02;73.21;103336.72;5038817;28;45370;-48
2021/12/17 03:38:03;;;;;;;;;56.25;40.50;;;;;7.99;74.17;103336.84;5038103;28;45276;-46
2021/12/17 03:40:31;;;;;;;;;53.75;36.50;;;;;7.94;73.98;103333.53;5038407;28;45246;-47
2021/12/17 03:43:02;;;;;;;;;46.75;35.75;;;;;8.02;73.55;103346.44;5037449;28;45508;-49
2021/12/17 03:45:28;;;;;;;;;41.00;33.50;;;;;8.01;73.64;103345.59;5038362;28;45524;-48
2021/12/17 03:47:54;;;;;;;;;45.50;38.50;;;;;7.93;73.91;103331.81;5038367;28;45916;-49
2021/12/17 03:50:19;;;;;;;;;49.75;35.75;;;;;8.02;73.29;103349.97;5038351;28;45176;-46
2021/12/17 03:52:45;;;;;;;;;54.50;39.25;;;;;8.02;73.90;103352.63;5038260;28;45490;-50
2021/12/17 03:55:11;;;;;;;;;44.75;34.00;;;;;8.04;73.50;103348.09;5037738;28;45710;-49
2021/12/17 03:57:36;;;;;;;;;50.25;31.50;;;;;8.10;73.67;103352.28;5037878;28;46202;-47
2021/12/17 04:00:06;;;;;;;;;49.75;35.00;;;;;8.19;73.30;103357.19;5038069;28;45338;-47
2021/12/17 04:02:31;;;;;;;;;44.50;38.50;;;;;8.26;73.51;103361.28;5038081;28;45268;-48
2021/12/17 04:04:57;;;;;;;;;42.75;35.25;;;;;8.32;72.86;103360.16;5038121;28;45160;-49
2021/12/17 04:07:22;;;;;;;;;51.25;39.00;;;;;8.37;72.58;103352.88;5037912;28;45491;-47
2021/12/17 04:09:47;;;;;;;;;43.50;33.50;;;;;8.41;72.71;103360.63;5037934;28;45483;-47
2021/12/17 04:12:16;;;;;;;;;46.00;38.75;;;;;8.49;72.46;103352.34;5038009;28;45449;-48
2021/12/17 04:14:47;;;;;;;;;49.25;39.25;;;;;8.50;72.58;103343.44;5038130;28;45303;-46
2021/12/17 04:17:21;;;;;;;;;44.00;32.00;;;;;8.58;71.72;103343.94;5037748;28;46100;-47
2021/12/17 04:19:46;;;;;;;;;47.25;34.25;;;;;8.62;71.89;103345.53;5037820;28;45338;-48
2021/12/17 04:22:11;;;;;;;;;37.25;34.50;;;;;8.65;72.01;103352.50;5037961;28;45373;-46
2021/12/17 04:24:37;;;;;;;;;50.75;34.75;;;;;8.69;71.96;103348.78;5037970;28;45310;-48
2021/12/17 04:27:02;;;;;;;;;36.25;31.25;;;;;8.72;71.77;103351.28;5037816;28;45568;-50
2021/12/17 04:29:28;;;;;;;;;46.75;34.25;;;;;8.75;72.02;103338.72;5037655;28;45455;-46
2021/12/17 04:31:55;;;;;;;;;45.25;34.25;;;;;8.80;71.72;103342.97;5037933;28;45374;-48
2021/12/17 04:34:22;;;;;;;;;40.50;31.50;;;;;8.79;72.11;103344.75;5037887;28;45452;-48
2021/12/17 04:36:50;;;;;;;;;49.25;34.50;;;;;8.83;71.71;103335.72;5037327;28;45365;-45
2021/12/17 04:39:18;;;;;;;;;41.50;37.75;;;;;8.84;71.29;103334.78;5037090;28;45334;-48
2021/12/17 04:41:50;;;;;;;;;43.50;34.75;;;;;8.88;71.69;103335.50;5037525;28;45390;-47
2021/12/17 04:44:21;;;;;;;;;40.75;33.25;;;;;8.88;72.44;103332.84;5037703;28;45423;-47
2021/12/17 04:57:14;;;;;;;;;43.75;32.25;;;;;8.85;71.54;103331.22;5037168;28;45681;-48
2021/12/17 04:57:47;;;;;;;;;41.00;37.75;;;;;8.97;71.79;103332.41;5037375;28;45963;-49
2021/12/17 05:00:19;;;;;;;;;40.50;31.25;;;;;8.98;71.95;103332.34;5019330;28;46091;-48
2021/12/17 05:02:49;;;;;;;;;39.25;31.75;;;;;9.00;71.67;103338.44;5037362;28;45226;-47
2021/12/17 05:05:16;;;;;;;;;40.25;36.00;;;;;9.02;71.13;103330.41;5037406;28;45431;-50
2021/12/17 05:07:51;;;;;;;;;47.75;37.75;;;;;9.04;71.03;103340.94;5036490;28;47069;-47
2021/12/17 05:18:32;;;;;;;;;46.50;36.00;;;;;9.07;71.27;103328.41;5036774;28;45688;-46
2021/12/17 05:21:03;;;;;;;;;34.75;31.50;;;;;9.09;71.92;103339.78;5036809;28;45297;-48
2021/12/17 05:23:32;;;;;;;;;37.00;32.00;;;;;9.12;71.13;103344.09;5036714;28;45263;-48
2021/12/17 05:25:59;;;;;;;;;42.25;33.00;;;;;9.14;71.86;103335.13;5037079;28;45555;-49
2021/12/17 05:28:25;;;;;;;;;47.00;34.25;;;;;9.14;71.48;103337.81;5036631;28;45802;-45
2021/12/17 05:30:50;;;;;;;;;36.75;28.50;;;;;9.08;71.87;103327.44;5036571;28;45207;-49
2021/12/17 05:33:20;;;;;;;;;42.75;31.00;;;;;9.15;71.85;103342.16;5036926;28;45372;-48
2021/12/17 05:35:47;;;;;;;;;42.00;32.75;;;;;9.09;71.46;103323.84;5036914;28;45482;-50
2021/12/17 05:38:13;;;;;;;;;44.50;30.25;;;;;9.15;70.93;103336.84;5036771;28;46577;-49
2021/12/17 05:40:40;;;;;;;;;37.75;26.75;;;;;9.16;72.13;103335.06;5036601;28;45374;-48
2021/12/17 05:43:06;;;;;;;;;46.00;34.75;;;;;9.11;71.59;103324.66;5036716;28;45244;-48
2021/12/17 05:45:48;;;;;;;;;42.50;34.75;;;;;9.13;71.76;103330.75;5036787;28;45272;-49
2021/12/17 05:48:16;;;;;;;;;42.75;36.25;;;;;9.13;71.64;103337.84;5036428;28;46640;-49
2021/12/17 05:50:43;;;;;;;;;42.25;34.75;;;;;9.13;71.96;103333.41;5036473;28;45447;-49
2021/12/17 05:53:09;;;;;;;;;43.75;33.00;;;;;9.14;71.55;103326.28;5036478;28;45354;-47
2021/12/17 05:55:35;;;;;;;;;38.25;32.25;;;;;9.10;71.68;103322.06;5036846;28;45256;-46
2021/12/17 05:58:02;;;;;;;;;45.25;29.00;;;;;9.13;72.20;103332.53;5036315;28;45286;-47
2021/12/17 06:00:31;;;;;;;;;39.00;31.00;;;;;9.12;72.55;103331.69;5036503;28;45397;-49
2021/12/17 06:02:58;;;;;;;;;32.75;24.00;;;;;9.11;72.29;103324.66;5036508;28;45415;-46
2021/12/17 06:05:24;;;;;;;;;35.00;26.75;;;;;9.12;72.83;103325.50;5036605;28;45271;-51
2021/12/17 06:07:50;;;;;;;;;45.25;32.25;;;;;9.06;72.25;103324.03;5035981;28;46143;-48
2021/12/17 06:10:15;;;;;;;;;39.00;33.25;;;;;9.06;71.88;103323.13;5035911;28;45456;-48
2021/12/17 06:12:42;;;;;;;;;41.25;27.25;;;;;9.05;72.43;103322.28;5036488;28;45324;-48
2021/12/17 06:15:10;;;;;;;;;37.75;28.50;;;;;9.11;72.96;103335.28;5036469;28;45322;-48
2021/12/17 06:17:36;;;;;;;;;36.75;29.00;;;;;9.15;72.15;103330.69;5036127;28;46168;-48
2021/12/17 06:20:02;;;;;;;;;35.50;26.25;;;;;9.16;72.29;103327.94;5038598;28;45405;-49
2021/12/17 06:22:28;;;;;;;;;43.75;30.75;;;;;9.16;72.92;103329.75;5021812;28;45342;-47
2021/12/17 06:24:53;;;;;;;;;33.50;27.50;;;;;9.16;73.06;103329.75;5039667;28;45309;-46
2021/12/17 06:27:21;;;;;;;;;37.50;30.00;;;;;9.17;73.33;103329.66;5039323;28;47077;-47
2021/12/17 06:29:47;;;;;;;;;40.25;27.50;;;;;9.17;73.28;103332.31;5039444;28;45373;-48
2021/12/17 06:32:12;;;;;;;;;36.75;28.00;;;;;9.18;73.07;103328.72;5039319;28;45396;-47
2021/12/17 06:34:38;;;;;;;;;29.50;25.25;;;;;9.21;72.59;103335.69;5039788;28;45386;-47
2021/12/17 06:37:05;;;;;;;;;35.50;26.50;;;;;9.20;72.89;103332.19;5039314;28;46271;-50
2021/12/17 06:39:32;;;;;;;;;35.50;25.25;;;;;9.22;72.64;103335.59;5039235;28;45168;-49
2021/12/17 06:41:58;;;;;;;;;38.25;29.75;;;;;9.22;73.03;103335.59;5039243;28;45381;-49
2021/12/17 06:44:26;;;;;;;;;36.50;28.00;;;;;9.21;73.05;103333.03;5039213;28;45396;-48
2021/12/17 06:55:13;;;;;;;;;35.75;28.75;;;;;9.24;73.01;103331.09;5039567;28;45341;-47
2021/12/17 07:00:23;;;;;;;;;29.25;26.25;;;;;9.26;73.34;103336.31;5039142;28;45356;-48
2021/12/17 07:10:52;;;;;;;;;44.50;29.25;;;;;9.27;73.05;103338.06;5038681;28;45232;-46
2021/12/17 07:32:36;;;;;;;;;36.00;26.00;;;;;9.33;73.97;103352.84;4996438;28;45359;-46
2021/12/17 07:39:55;;;;;;;;;40.25;31.00;;;;;9.37;73.41;103351.75;4996015;28;45338;-46
2021/12/17 07:42:21;;;;;;;;;36.00;26.50;;;;;9.34;73.96;103350.09;4996153;28;45341;-49
2021/12/17 07:44:46;;;;;;;;;33.25;23.25;;;;;9.38;73.40;103361.44;4995736;28;45443;-48
2021/12/17 07:47:12;;;;;;;;;36.75;26.75;;;;;9.41;73.78;103363.94;4995666;28;45526;-48
2021/12/17 07:49:37;;;;;;;;;32.50;27.50;;;;;9.40;73.11;103357.78;4995474;28;46144;-47
2021/12/17 07:52:03;;;;;;;;;36.50;30.00;;;;;9.39;73.68;103355.19;4994957;28;45514;-47
2021/12/17 07:54:29;;;;;;;;;41.25;29.25;;;;;9.41;73.62;103354.19;4995891;28;45430;-49
2021/12/17 07:56:54;;;;;;;;;38.75;30.50;;;;;9.43;73.42;103351.44;4994839;28;45543;-50
2021/12/17 07:59:20;;;;;;;;;32.00;27.00;;;;;9.45;73.27;103357.56;4995156;28;45869;-50
2021/12/17 08:01:45;;;;;;;;;34.25;25.50;;;;;9.47;73.66;103356.50;5000927;28;45529;-49
2021/12/17 08:04:11;;;;;;;;;34.50;26.25;;;;;9.49;73.33;103361.78;5037579;28;45321;-48
2021/12/17 08:06:37;;;;;;;;;38.50;23.75;;;;;9.51;73.62;103354.56;5037980;28;45396;-48
2021/12/17 08:09:04;;;;;;;;;35.50;25.50;;;;;9.53;73.78;103352.72;5037473;28;46408;-48
2021/12/17 08:11:31;;;;;;;;;37.00;28.75;;;;;9.53;73.80;103350.06;5037262;28;45465;-47
2021/12/17 08:13:58;;;;;;;;;32.50;27.25;;;;;9.55;73.62;103347.31;5037588;28;45409;-47
2021/12/17 08:19:06;;;;;;;;;38.00;27.50;;;;;9.52;73.29;103350.13;5037231;28;46059;-49
2021/12/17 08:27:07;;;;;;;;;35.00;29.75;;;;;9.59;74.06;103368.34;5020213;28;45466;-47
2021/12/17 08:32:07;;;;;;;;;36.00;26.50;;;;;9.62;73.84;103373.53;5037184;28;45542;-48
2021/12/17 08:34:34;;;;;;;;;29.00;23.50;;;;;9.63;73.52;103374.38;5037203;28;45397;-46
2021/12/17 08:37:00;;;;;;;;;34.25;25.25;;;;;9.63;73.42;103375.22;5037398;28;45428;-48
2021/12/17 08:39:26;;;;;;;;;23.67;19.00;;;;;9.59;73.12;103371.00;5035499;28;46401;-47
2021/12/17 08:41:54;;;;;;;;;39.00;26.25;;;;;9.59;73.84;103372.81;5035973;28;45405;-48
2021/12/17 08:44:20;;;;;;;;;35.75;27.75;;;;;9.60;73.38;103372.72;5036200;28;45452;-50
2021/12/17 08:46:46;;;;;;;;;30.50;27.50;;;;;9.62;73.87;103375.31;5035608;28;45504;-49
2021/12/17 08:49:11;;;;;;;;;25.25;23.75;;;;;9.60;74.05;103363.88;5036116;28;45399;-49
2021/12/17 08:51:38;;;;;;;;;36.00;23.00;;;;;9.62;73.51;103370.00;5036141;28;45380;-47
2021/12/17 08:54:04;;;;;;;;;34.00;28.00;;;;;9.62;74.19;103360.22;5036212;28;45220;-48
2021/12/17 08:56:32;;;;;;;;;29.25;21.50;;;;;9.64;73.38;103368.97;5036437;28;45315;-47
2021/12/17 08:59:01;;;;;;;;;37.25;27.75;;;;;9.64;73.96;103370.78;5035799;28;45750;-48
2021/12/17 09:01:27;;;;;;;;;31.25;23.25;;;;;9.67;73.92;103366.16;5035367;28;45441;-50
2021/12/17 09:03:52;;;;;;;;;32.00;25.50;;;;;9.64;73.46;103363.66;5036204;28;45689;-48
2021/12/17 09:06:17;;;;;;;;;30.75;23.00;;;;;9.66;73.82;103366.25;5036125;28;45716;-50
2021/12/17 09:08:43;;;;;;;;;36.50;28.50;;;;;9.70;73.78;103373.13;5017861;28;46322;-50
2021/12/17 09:11:09;;;;;;;;;43.75;31.00;;;;;9.65;74.05;103365.41;5035888;28;45433;-48
2021/12/17 09:13:34;;;;;;;;;35.25;24.25;;;;;9.73;73.51;103378.28;5035996;28;45461;-49
2021/12/17 09:16:05;;;;;;;;;37.00;29.50;;;;;9.75;73.71;103384.41;5036075;28;45323;-47
2021/12/17 09:18:31;;;;;;;;;27.33;25.00;;;;;9.66;73.37;103368.91;5035696;28;46401;-48
2021/12/17 09:20:57;;;;;;;;;27.50;24.75;;;;;9.66;74.06;103371.56;5035663;28;45362;-51
2021/12/17 09:23:23;;;;;;;;;29.33;21.00;;;;;9.79;73.75;103385.97;5017646;28;45487;-47
2021/12/17 09:25:49;;;;;;;;;23.67;21.33;;;;;9.75;73.33;103387.91;5035775;28;45453;-49
2021/12/17 09:28:14;;;;;;;;;49.00;34.00;;;;;9.73;73.70;103389.81;5035539;28;45396;-49
2021/12/17 09:30:40;;;;;;;;;40.50;30.00;;;;;9.75;73.99;103389.72;5035738;28;45224;-50
2021/12/17 09:33:05;;;;;;;;;40.50;29.50;;;;;9.72;73.89;103390.72;5026481;28;45531;-49
2021/12/17 09:35:31;;;;;;;;;35.25;26.25;;;;;9.73;73.68;103397.78;5016081;28;45466;-50
2021/12/17 09:37:57;;;;;;;;;33.75;27.00;;;;;9.75;73.85;103397.69;5015290;28;46256;-52
2021/12/17 09:40:22;;;;;;;;;28.67;24.00;;;;;9.77;73.56;103400.25;5015693;28;45444;-46
2021/12/17 09:42:48;;;;;;;;;37.00;30.50;;;;;9.81;74.32;103399.16;5015659;28;45642;-47
2021/12/17 09:45:15;;;;;;;;;43.50;33.25;;;;;9.85;73.83;103404.25;5016038;28;45417;-46
2021/12/17 09:47:42;;;;;;;;;19.75;15.25;;;;;9.87;73.67;103414.84;5015280;28;46270;-47
2021/12/17 09:50:10;;;;;;;;;37.00;30.75;;;;;9.89;73.68;103416.47;5015795;28;45236;-49
2021/12/17 09:52:35;;;;;;;;;31.75;26.00;;;;;9.89;73.78;103424.44;5015629;28;45470;-49
2021/12/17 09:55:04;;;;;;;;;37.00;27.00;;;;;9.89;73.85;103415.59;5019422;28;45466;-49
2021/12/17 09:57:35;;;;;;;;;35.33;27.33;;;;;9.83;73.11;103411.47;5019363;28;47045;-49
2021/12/17 10:00:05;;;;;;;;;30.50;27.25;;;;;9.87;73.41;103410.38;5019188;28;45281;-49
2021/12/17 10:02:30;;;;;;;;;37.50;31.00;;;;;9.86;74.04;103418.41;5019561;28;45382;-52
2021/12/17 10:04:56;;;;;;;;;40.50;29.75;;;;;9.82;73.81;103422.16;5019869;28;45460;-48
2021/12/17 10:07:24;;;;;;;;;43.25;33.50;;;;;9.83;73.59;103418.59;5019383;28;45981;-46
2021/12/17 10:09:51;;;;;;;;;39.75;28.50;;;;;9.83;73.29;103419.44;5019181;28;45343;-50
2021/12/17 10:12:25;;;;;;;;;40.00;26.75;;;;;9.82;74.02;103415.06;5019435;28;45470;-49
2021/12/17 10:15:08;;;;;;;;;37.25;32.25;;;;;9.83;73.81;103405.28;5019038;28;45409;-49
2021/12/17 10:17:36;;;;;;;;;39.00;30.00;;;;;9.82;73.88;103406.19;5018959;28;46099;-49
2021/12/17 10:20:03;;;;;;;;;40.25;28.50;;;;;9.86;73.42;103402.44;5019133;28;45350;-48
2021/12/17 10:22:31;;;;;;;;;27.75;21.75;;;;;9.89;73.83;103402.31;5019348;28;45469;-47
2021/12/17 10:25:09;;;;;;;;;37.25;25.00;;;;;9.90;73.52;103396.03;5019488;28;45392;-49
2021/12/17 10:27:37;;;;;;;;;36.00;30.00;;;;;9.90;73.54;103390.72;5018977;28;46066;-46
2021/12/17 10:30:18;;;;;;;;;30.00;28.25;;;;;9.89;73.55;103379.22;5019344;28;45375;-46
2021/12/17 10:32:49;;;;;;;;;48.25;36.25;;;;;9.95;73.69;103389.56;5019329;28;45398;-50
2021/12/17 10:35:17;;;;;;;;;42.75;30.00;;;;;9.94;73.52;103379.88;5019209;28;45330;-47
2021/12/17 10:37:45;;;;;;;;;29.50;21.00;;;;;9.97;73.67;103370.88;5018928;28;46423;-48
2021/12/17 10:40:40;;;;;;;;;47.25;30.00;;;;;9.97;73.70;103368.22;5019207;28;45405;-46
2021/12/17 10:43:42;;;;;;;;;41.75;30.25;;;;;9.97;73.72;103360.22;4938296;28;45381;-46
2021/12/17 10:46:23;;;;;;;;;43.75;33.00;;;;;10.04;73.49;103356.34;4938847;28;45395;-50
2021/12/17 10:48:56;;;;;;;;;31.75;27.75;;;;;10.00;73.74;103360.94;4938536;28;46207;-48
2021/12/17 10:54:11;;;;;;;;;37.25;28.00;;;;;10.04;73.33;103353.66;4938221;28;45232;-49
2021/12/17 10:56:38;;;;;;;;;29.25;27.00;;;;;10.06;73.20;103351.78;4938416;28;45357;-47
2021/12/17 10:59:07;;;;;;;;;38.25;31.50;;;;;10.07;73.30;103350.84;4938244;28;46280;-45
2021/12/17 11:01:33;;;;;;;;;36.75;27.75;;;;;10.09;73.02;103342.78;4938165;28;45482;-47
2021/12/17 11:04:05;;;;;;;;;40.25;34.75;;;;;10.11;73.27;103333.81;4938215;28;45448;-47
2021/12/17 11:06:48;;;;;;;;;31.00;26.75;;;;;10.15;72.91;103329.16;4938178;28;45303;-48
2021/12/17 11:09:34;;;;;;;;;38.00;32.50;;;;;10.18;72.71;103331.66;4938390;28;46524;-48
2021/12/17 11:12:06;;;;;;;;;39.50;33.00;;;;;10.09;72.95;103313.53;4938172;28;45289;-49
2021/12/17 11:14:31;;;;;;;;;42.25;31.25;;;;;10.22;72.25;103336.75;4938133;28;45365;-48
2021/12/17 11:16:57;;;;;;;;;46.25;31.00;;;;;10.13;72.26;103315.94;4956853;28;45461;-49
2021/12/17 11:19:24;;;;;;;;;44.00;30.25;;;;;10.27;72.03;103325.88;4972338;28;46065;-51
2021/12/17 11:21:50;;;;;;;;;35.25;31.50;;;;;10.31;72.06;103308.81;5018420;28;45757;-47
2021/12/17 11:24:16;;;;;;;;;31.50;30.25;;;;;10.32;72.00;103305.22;5018729;28;45380;-50
2021/12/17 11:26:41;;;;;;;;;35.33;28.00;;;;;10.35;71.79;103304.19;5018779;28;45433;-49
2021/12/17 11:29:07;;;;;;;;;37.00;31.00;;;;;10.37;71.74;103294.34;5017766;28;47316;-46
2021/12/17 11:31:33;;;;;;;;;46.00;31.50;;;;;10.43;71.09;103297.50;5018453;28;45366;-48
2021/12/17 11:34:01;;;;;;;;;37.00;27.50;;;;;10.46;71.30;103301.81;5018338;28;45463;-51
2021/12/17 11:36:28;;;;;;;;;39.00;29.75;;;;;10.47;71.02;103296.41;5017815;28;45378;-48
2021/12/17 11:38:56;;;;;;;;;40.25;33.50;;;;;10.52;70.77;103293.50;5016930;28;46941;-52
2021/12/17 11:41:55;;;;;;;;;35.75;30.50;;;;;10.53;71.26;103292.53;5017143;28;45390;-51
2021/12/17 11:44:27;;;;;;;;;31.00;24.33;;;;;10.53;70.93;103281.03;5017973;28;45452;-51
2021/12/17 11:47:04;;;;;;;;;47.75;35.50;;;;;10.54;70.36;103294.28;5017748;28;45592;-51
2021/12/17 11:49:39;;;;;;;;;39.50;27.25;;;;;10.54;70.83;103299.59;5017359;28;46247;-49
2021/12/17 11:52:05;;;;;;;;;33.67;29.67;;;;;10.54;70.29;103282.78;5016155;28;45404;-50
2021/12/17 11:54:34;;;;;;;;;40.33;33.33;;;;;10.59;70.19;103291.38;5018601;28;45570;-48
2021/12/17 11:57:12;;;;;;;;;35.67;28.33;;;;;10.58;69.72;103285.19;5019730;28;45239;-54
2021/12/17 11:59:44;;;;;;;;;40.00;29.75;;;;;10.52;70.40;103274.88;5018560;28;46418;-51
2021/12/17 12:02:20;;;;;;;;;42.50;32.50;;;;;10.54;69.46;103274.81;5018531;28;45450;-52
2021/12/17 12:04:54;;;;;;;;;30.00;26.67;;;;;10.59;70.36;103286.03;5016885;28;45167;-48
2021/12/17 12:07:33;;;;;;;;;25.67;19.67;;;;;10.56;70.10;103280.88;5018140;28;45238;-51
2021/12/17 12:10:08;;;;;;;;;40.67;27.67;;;;;10.55;69.86;103284.50;5017739;28;47130;-49
2021/12/17 12:12:33;;;;;;;;;29.33;21.00;;;;;10.53;69.49;103281.03;5017541;28;45437;-51
2021/12/17 12:15:17;;;;;;;;;30.67;25.33;;;;;10.52;69.35;103266.88;5017118;28;45416;-50
2021/12/17 12:17:58;;;;;;;;;34.00;21.33;;;;;10.55;69.19;103263.19;5016813;28;45370;-49
2021/12/17 12:20:47;;;;;;;;;37.33;26.67;;;;;10.56;69.09;103260.44;5017580;28;46281;-47
2021/12/17 12:23:23;;;;;;;;;39.50;30.50;;;;;10.61;68.88;103257.53;5006885;28;45390;-50
2021/12/17 12:26:11;;;;;;;;;39.33;30.33;;;;;10.63;69.07;103253.84;5016980;28;45399;-50
2021/12/17 12:28:45;;;;;;;;;33.33;28.00;;;;;10.64;68.71;103252.91;5017032;28;45465;-47
2021/12/17 12:31:20;;;;;;;;;27.33;21.33;;;;;10.64;69.00;103252.03;5016437;28;46292;-50
2021/12/17 12:34:00;;;;;;;;;36.67;27.67;;;;;10.63;68.26;103259.16;5016310;28;45325;-50
2021/12/17 12:36:51;;;;;;;;;33.00;28.00;;;;;10.66;68.71;103250.13;5016606;28;45236;-50
2021/12/17 12:39:27;;;;;;;;;34.00;24.00;;;;;10.66;67.90;103245.69;5016681;28;45371;-48
2021/12/17 12:42:11;;;;;;;;;37.67;29.67;;;;;10.69;67.87;103244.66;5016399;28;45588;-50
2021/12/17 12:44:40;;;;;;;;;28.33;26.67;;;;;10.73;68.04;103236.41;5015199;28;45437;-49
2021/12/17 12:47:10;;;;;;;;;36.67;28.33;;;;;10.72;67.57;103226.69;5016660;28;45152;-50
2021/12/17 12:50:02;;;;;;;;;25.33;22.67;;;;;10.85;67.80;103231.34;5017334;28;45375;-50
2021/12/17 12:52:30;;;;;;;;;33.33;25.00;;;;;10.94;66.83;103229.00;5017148;28;46572;-51
2021/12/17 12:54:57;;;;;;;;;33.67;25.33;;;;;10.97;66.29;103236.81;5016979;28;45489;-48
2021/12/17 12:57:36;;;;;;;;;35.00;30.00;;;;;10.96;65.38;103227.13;5017178;28;45326;-47
2021/12/17 13:00:21;;;;;;;;;21.00;16.33;;;;;10.95;66.14;103225.38;5017048;28;45417;-49
2021/12/17 13:02:51;;;;;;;;;31.67;25.33;;;;;10.94;66.05;103225.47;5016631;28;46342;-51
2021/12/17 13:05:16;;;;;;;;;34.67;20.67;;;;;10.90;66.59;103226.59;5016724;28;45377;-51
2021/12/17 13:07:47;;;;;;;;;27.00;20.33;;;;;10.95;65.75;103221.84;5016153;28;45462;-50
2021/12/17 13:10:17;;;;;;;;;29.33;23.33;;;;;10.93;65.67;103215.78;5017142;28;45522;-51
2021/12/17 13:12:54;;;;;;;;;30.67;25.67;;;;;11.03;65.79;103218.75;5016590;28;47100;-49
2021/12/17 13:21:17;;;;;;;;;26.67;23.33;;;;;11.20;65.42;103223.94;5016870;28;45416;-48
2021/12/17 13:23:49;;;;;;;;;35.33;26.67;;;;;11.22;65.33;103214.06;5015452;28;47105;-50
2021/12/17 13:26:15;;;;;;;;;33.33;24.33;;;;;11.27;64.89;103219.97;5015897;28;45350;-50
2021/12/17 13:28:45;;;;;;;;;25.33;18.33;;;;;11.24;65.47;103215.69;5015258;28;45406;-50
2021/12/17 13:31:10;;;;;;;;;27.00;24.00;;;;;11.27;65.03;103213.81;5016729;28;45245;-51
2021/12/17 13:33:37;;;;;;;;;35.67;25.00;;;;;11.27;64.97;103214.66;5016094;28;46139;-52
2021/12/17 13:36:05;;;;;;;;;30.33;28.33;;;;;11.19;65.64;103217.75;5015091;28;45498;-52
2021/12/17 13:38:32;;;;;;;;;32.33;25.67;;;;;11.07;64.85;103212.31;5016809;28;45370;-53
2021/12/17 13:40:59;;;;;;;;;27.67;18.33;;;;;10.97;65.35;103219.97;5016651;28;45333;-45
2021/12/17 13:43:28;;;;;;;;;28.33;22.67;;;;;10.93;65.87;103231.75;4998695;28;46278;-47
2021/12/17 13:45:55;;;;;;;;;31.33;22.33;;;;;10.83;65.72;103219.88;5016294;28;45454;-48
2021/12/17 13:48:21;;;;;;;;;27.33;17.33;;;;;10.76;65.69;103214.06;4998464;28;45415;-50
2021/12/17 13:50:50;;;;;;;;;26.00;18.00;;;;;10.71;65.65;103214.34;5016649;28;45359;-48
2021/12/17 13:53:17;;;;;;;;;23.00;16.00;;;;;10.75;65.64;103223.03;5016002;28;46080;-52
2021/12/17 13:55:47;;;;;;;;;28.33;20.33;;;;;10.74;65.58;103202.63;5015480;28;45371;-49
2021/12/17 13:58:16;;;;;;;;;30.67;25.00;;;;;10.67;65.44;103191.50;5016505;28;45350;-49
2021/12/17 14:00:46;;;;;;;;;34.67;23.67;;;;;10.66;66.06;103187.13;5016137;28;45375;-50
2021/12/17 14:03:14;;;;;;;;;26.33;19.00;;;;;10.76;65.92;103205.25;5015863;28;47008;-48
2021/12/17 14:05:43;;;;;;;;;29.33;24.00;;;;;10.78;65.86;103206.84;5016305;28;45370;-52
2021/12/17 14:08:11;;;;;;;;;30.33;21.67;;;;;10.71;65.90;103190.38;5015521;28;45414;-49
2021/12/17 14:10:38;;;;;;;;;27.67;22.67;;;;;10.76;65.77;103195.44;5016227;28;45450;-51
2021/12/17 14:13:05;;;;;;;;;27.33;20.33;;;;;10.75;66.15;103185.75;5016013;28;45359;-49
2021/12/17 14:15:35;;;;;;;;;26.33;21.67;;;;;10.82;66.23;103197.72;5015628;28;45361;-49
2021/12/17 14:18:05;;;;;;;;;24.00;24.00;;;;;10.81;66.23;103195.19;5016171;28;45401;-49
2021/12/17 14:20:44;;;;;;;;;23.67;20.33;;;;;10.80;66.47;103174.81;5016569;28;45311;-48